createdAt,value
2023-05-05T00:00:12.302Z,72.89
2023-05-05T00:02:40.416Z,72.80
2023-05-05T00:05:07.716Z,72.83
2023-05-05T00:07:34.674Z,73.06
2023-05-05T00:10:01.521Z,73.17
2023-05-05T00:12:28.844Z,72.80
2023-05-05T00:14:55.893Z,72.91
2023-05-05T00:17:23.186Z,73.19
2023-05-05T00:19:50.100Z,73.31
2023-05-05T00:22:17.084Z,73.68
2023-05-05T00:24:43.848Z,73.55
2023-05-05T00:27:12.070Z,73.38
2023-05-05T00:29:39.074Z,73.43
2023-05-05T00:32:06.396Z,73.35
2023-05-05T00:34:33.392Z,73.41
2023-05-05T00:37:00.210Z,73.51
2023-05-05T00:39:27.118Z,73.57
2023-05-05T00:41:54.316Z,73.57
2023-05-05T00:44:37.020Z,73.51
2023-05-05T00:47:04.379Z,73.38
2023-05-05T00:49:32.147Z,73.58
2023-05-05T00:51:59.558Z,73.46
2023-05-05T00:54:27.176Z,73.46
2023-05-05T00:56:54.263Z,73.40
2023-05-05T00:59:21.435Z,73.76
2023-05-05T01:01:48.509Z,73.68
2023-05-05T01:04:15.556Z,74.02
2023-05-05T01:06:52.705Z,74.20
2023-05-05T01:09:38.075Z,74.45
2023-05-05T01:12:26.069Z,74.44
2023-05-05T01:15:01.778Z,74.25
2023-05-05T01:18:07.826Z,74.32
2023-05-05T01:20:49.230Z,74.47
2023-05-05T01:23:45.993Z,74.51
2023-05-05T01:26:30.803Z,74.70
2023-05-05T01:29:19.429Z,74.37
2023-05-05T01:31:51.848Z,74.55
2023-05-05T01:34:28.993Z,74.55
2023-05-05T01:37:07.621Z,74.36
2023-05-05T01:39:36.134Z,74.61
2023-05-05T01:42:10.034Z,74.41
2023-05-05T01:44:38.046Z,74.66
2023-05-05T01:47:06.844Z,74.32
2023-05-05T01:49:36.104Z,73.94
2023-05-05T01:52:05.797Z,74.38
2023-05-05T01:54:35.274Z,74.44
2023-05-05T01:57:04.991Z,74.44
2023-05-05T01:59:33.253Z,74.38
2023-05-05T02:02:02.865Z,74.31
2023-05-05T02:04:33.175Z,74.36
2023-05-05T02:07:02.261Z,74.17
2023-05-05T02:09:31.065Z,74.28
2023-05-05T02:11:59.736Z,74.02
2023-05-05T02:14:30.586Z,73.90
2023-05-05T02:16:59.137Z,73.65
2023-05-05T02:19:34.077Z,73.54
2023-05-05T02:22:01.218Z,73.66
2023-05-05T02:24:29.084Z,73.62
2023-05-05T02:26:58.618Z,73.57
2023-05-05T02:29:36.530Z,73.53
2023-05-05T02:32:11.936Z,73.55
2023-05-05T02:34:40.872Z,73.46
2023-05-05T02:37:15.820Z,73.44
2023-05-05T02:39:56.190Z,73.41
2023-05-05T02:42:25.775Z,73.38
2023-05-05T02:44:55.437Z,73.33
2023-05-05T02:47:22.571Z,73.35
2023-05-05T02:49:51.624Z,73.54
2023-05-05T02:52:18.498Z,73.49
2023-05-05T02:54:46.302Z,73.52
2023-05-05T02:57:20.761Z,73.69
2023-05-05T03:00:22.662Z,73.72
2023-05-05T03:03:05.832Z,73.82
2023-05-05T03:05:44.000Z,73.90
2023-05-05T03:08:16.926Z,74.05
2023-05-05T03:10:50.688Z,73.66
2023-05-05T03:13:20.378Z,73.75
2023-05-05T03:15:49.332Z,73.96
2023-05-05T03:18:22.526Z,73.92
2023-05-05T03:20:56.794Z,74.21
2023-05-05T03:23:24.054Z,74.03
2023-05-05T03:25:56.078Z,74.08
2023-05-05T03:28:33.217Z,73.96
2023-05-05T03:31:05.938Z,74.07
2023-05-05T03:33:35.771Z,74.12
2023-05-05T03:36:02.716Z,74.16
2023-05-05T03:38:29.677Z,73.81
2023-05-05T03:40:56.664Z,73.93
2023-05-05T03:43:26.137Z,73.77
2023-05-05T03:45:53.187Z,73.70
2023-05-05T03:48:20.184Z,73.63
2023-05-05T03:50:48.922Z,73.77
2023-05-05T03:53:17.695Z,73.74
2023-05-05T03:55:44.832Z,73.53
2023-05-05T03:58:11.792Z,73.44
2023-05-05T04:00:38.725Z,73.24
2023-05-05T04:03:05.989Z,72.96
2023-05-05T04:05:33.033Z,73.26
2023-05-05T04:08:00.182Z,73.47
2023-05-05T04:10:27.405Z,74.10
2023-05-05T04:12:54.354Z,74.42
2023-05-05T04:15:21.788Z,74.29
2023-05-05T04:17:48.715Z,74.35
2023-05-05T04:20:15.704Z,74.55
2023-05-05T04:22:43.187Z,74.26
2023-05-05T04:25:10.998Z,73.80
2023-05-05T04:27:38.243Z,73.93
2023-05-05T04:30:06.008Z,73.99
2023-05-05T04:32:35.185Z,73.75
2023-05-05T04:35:02.189Z,74.54
2023-05-05T04:37:29.191Z,72.36
2023-05-05T04:39:57.494Z,72.55
2023-05-05T04:42:24.829Z,72.41
2023-05-05T04:44:51.784Z,72.48
2023-05-05T04:47:18.761Z,71.90
2023-05-05T04:49:45.629Z,71.12
2023-05-05T04:52:15.746Z,69.83
2023-05-05T04:54:42.737Z,69.28
2023-05-05T04:57:09.617Z,67.42
2023-05-05T04:59:36.905Z,67.57
2023-05-05T05:02:04.297Z,66.40
2023-05-05T05:04:31.196Z,66.88
2023-05-05T05:06:59.314Z,66.08
2023-05-05T05:09:27.080Z,64.37
2023-05-05T05:11:54.020Z,64.73
2023-05-05T05:14:21.345Z,64.63
2023-05-05T05:16:52.301Z,64.25
2023-05-05T05:19:21.350Z,62.89
2023-05-05T05:21:48.422Z,62.58
2023-05-05T05:24:15.441Z,62.58
2023-05-05T05:26:43.303Z,61.19
2023-05-05T05:29:10.357Z,60.64
2023-05-05T05:31:37.231Z,60.34
2023-05-05T05:34:04.508Z,59.04
2023-05-05T05:36:31.805Z,58.30
2023-05-05T05:38:58.693Z,57.63
2023-05-05T05:41:26.077Z,56.38
2023-05-05T05:43:54.605Z,55.33
2023-05-05T05:46:21.829Z,54.30
2023-05-05T05:48:48.904Z,52.27
2023-05-05T05:51:15.858Z,49.78
2023-05-05T05:53:43.104Z,47.26
2023-05-05T05:56:10.109Z,45.47
2023-05-05T05:58:37.603Z,43.33
2023-05-05T06:01:05.212Z,43.84
2023-05-05T06:03:32.424Z,43.27
2023-05-05T06:05:59.327Z,42.61
2023-05-05T06:08:26.982Z,41.09
2023-05-05T06:10:55.573Z,41.05
2023-05-05T06:13:22.521Z,40.38
2023-05-05T06:15:51.412Z,40.13
2023-05-05T06:18:18.596Z,40.72
2023-05-05T06:20:48.874Z,40.52
2023-05-05T06:23:16.532Z,40.81
2023-05-05T06:25:48.586Z,41.05
2023-05-05T06:28:15.514Z,41.10
2023-05-05T06:30:45.201Z,40.49
2023-05-05T06:33:12.012Z,39.82
2023-05-05T06:35:38.958Z,37.95
2023-05-05T06:38:06.035Z,38.26
2023-05-05T06:40:32.952Z,36.30
2023-05-05T06:42:59.777Z,33.76
2023-05-05T06:45:33.542Z,31.63
2023-05-05T06:48:00.591Z,29.35
2023-05-05T06:50:27.429Z,27.90
2023-05-05T06:52:54.365Z,26.90
2023-05-05T06:55:21.596Z,25.40
2023-05-05T06:57:48.416Z,23.53
2023-05-05T07:00:17.010Z,22.40
2023-05-05T07:02:44.213Z,21.03
2023-05-05T07:05:11.149Z,21.63
2023-05-05T07:07:38.981Z,21.10
2023-05-05T07:10:06.835Z,21.26
2023-05-05T07:12:33.943Z,20.34
2023-05-05T07:15:04.944Z,20.63
2023-05-05T07:17:36.548Z,20.82
2023-05-05T07:20:03.859Z,21.90
2023-05-05T07:22:30.880Z,21.77
2023-05-05T07:24:58.283Z,20.58
2023-05-05T07:27:25.634Z,21.15
2023-05-05T07:29:52.468Z,19.81
2023-05-05T07:32:19.542Z,19.99
2023-05-05T07:34:46.357Z,20.82
2023-05-05T07:37:13.209Z,21.45
2023-05-05T07:39:40.160Z,23.00
2023-05-05T07:42:07.444Z,24.15
2023-05-05T07:44:34.415Z,24.59
2023-05-05T07:47:01.257Z,25.89
2023-05-05T07:49:28.105Z,26.42
2023-05-05T07:51:55.456Z,29.39
2023-05-05T07:54:22.435Z,32.51
2023-05-05T07:56:49.418Z,34.25
2023-05-05T07:59:16.287Z,38.59
2023-05-05T08:01:43.171Z,38.93
2023-05-05T08:04:10.180Z,41.49
2023-05-05T08:06:37.168Z,42.37
2023-05-05T08:09:04.193Z,41.28
2023-05-05T08:11:31.020Z,41.89
2023-05-05T08:13:58.807Z,44.48
2023-05-05T08:16:25.813Z,45.43
2023-05-05T08:18:52.772Z,46.47
2023-05-05T08:21:19.732Z,47.55
2023-05-05T08:23:46.776Z,47.74
2023-05-05T08:26:13.725Z,48.85
2023-05-05T08:28:41.332Z,48.82
2023-05-05T08:31:08.286Z,48.31
2023-05-05T08:33:35.126Z,48.14
2023-05-05T08:36:02.003Z,46.66
2023-05-05T08:38:28.911Z,45.57
2023-05-05T08:40:56.198Z,45.22
2023-05-05T08:43:24.096Z,46.43
2023-05-05T08:45:51.838Z,45.24
2023-05-05T08:48:23.156Z,45.38
2023-05-05T08:50:59.908Z,46.32
2023-05-05T08:53:55.914Z,44.53
2023-05-05T08:56:25.935Z,44.02
2023-05-05T08:58:54.320Z,43.23
2023-05-05T09:01:22.830Z,42.02
2023-05-05T09:03:50.762Z,40.30
2023-05-05T09:06:20.507Z,38.51
2023-05-05T09:08:47.614Z,37.30
2023-05-05T09:11:14.651Z,35.45
2023-05-05T09:13:41.905Z,34.78
2023-05-05T09:16:09.209Z,34.08
2023-05-05T09:18:41.156Z,33.53
2023-05-05T09:21:24.951Z,32.70
2023-05-05T09:24:09.384Z,32.62
2023-05-05T09:26:44.236Z,34.12
2023-05-05T09:29:18.545Z,34.34
2023-05-05T09:31:59.890Z,34.94
2023-05-05T09:34:27.284Z,33.72
2023-05-05T09:36:54.116Z,32.84
2023-05-05T09:39:21.072Z,33.63
2023-05-05T09:41:48.058Z,32.78
2023-05-05T09:44:16.182Z,32.60
2023-05-05T09:46:55.262Z,30.58
2023-05-05T09:49:26.872Z,30.18
2023-05-05T09:51:54.904Z,30.47
2023-05-05T09:54:28.591Z,30.31
2023-05-05T09:56:57.351Z,31.22
2023-05-05T09:59:24.565Z,31.22
2023-05-05T10:01:55.063Z,31.93
2023-05-05T10:04:31.567Z,32.57
2023-05-05T10:06:59.369Z,33.05
2023-05-05T10:09:27.043Z,33.93
2023-05-05T10:11:57.872Z,34.91
2023-05-05T10:14:26.424Z,36.17
2023-05-05T10:16:55.307Z,36.75
2023-05-05T10:19:24.301Z,35.98
2023-05-05T10:21:58.994Z,36.31
2023-05-05T10:24:50.905Z,36.13
2023-05-05T10:27:20.206Z,35.95
2023-05-05T10:29:49.793Z,35.54
2023-05-05T10:32:52.031Z,35.54
2023-05-05T10:35:20.034Z,35.93
2023-05-05T10:37:47.421Z,34.68
2023-05-05T10:40:15.168Z,33.66
2023-05-05T10:42:42.130Z,33.53
2023-05-05T10:45:09.720Z,33.82
2023-05-05T10:47:38.329Z,33.09
2023-05-05T10:50:18.500Z,33.75
2023-05-05T10:52:45.597Z,33.77
2023-05-05T10:55:21.404Z,33.28
2023-05-05T10:57:53.519Z,33.14
2023-05-05T11:00:38.432Z,32.30
2023-05-05T11:03:26.429Z,31.93
2023-05-05T11:06:08.501Z,31.71
2023-05-05T11:08:42.669Z,31.16
2023-05-05T11:11:10.647Z,31.40
2023-05-05T11:13:41.705Z,31.87
2023-05-05T11:16:48.218Z,32.12
2023-05-05T11:19:42.836Z,32.35
2023-05-05T11:22:10.590Z,32.93
2023-05-05T11:24:39.716Z,32.45
2023-05-05T11:27:06.584Z,33.32
2023-05-05T11:30:09.171Z,33.22
2023-05-05T11:32:36.382Z,33.77
2023-05-05T11:35:04.033Z,33.69
2023-05-05T11:37:30.914Z,33.14
2023-05-05T11:40:07.789Z,32.31
2023-05-05T11:42:35.027Z,31.96
2023-05-05T11:45:02.766Z,31.94
2023-05-05T11:47:31.068Z,31.54
2023-05-05T11:49:58.353Z,31.05
2023-05-05T11:52:26.926Z,30.91
2023-05-05T11:54:54.190Z,29.48
2023-05-05T11:57:28.558Z,30.28
2023-05-05T12:00:02.196Z,29.59
2023-05-05T12:02:31.828Z,29.11
2023-05-05T12:04:59.963Z,28.19
2023-05-05T12:07:30.242Z,28.56
2023-05-05T12:09:57.290Z,29.42
2023-05-05T12:12:44.525Z,29.25
2023-05-05T12:15:11.584Z,29.45
2023-05-05T12:17:40.847Z,29.29
2023-05-05T12:20:09.235Z,29.13
2023-05-05T12:22:36.409Z,29.35
2023-05-05T12:25:08.094Z,29.03
2023-05-05T12:27:35.609Z,28.42
2023-05-05T12:30:13.443Z,28.06
2023-05-05T12:32:40.465Z,27.47
2023-05-05T12:35:08.662Z,26.74
2023-05-05T12:37:36.242Z,26.39
2023-05-05T12:40:06.294Z,25.62
2023-05-05T12:42:39.046Z,25.24
2023-05-05T12:45:16.141Z,25.04
2023-05-05T12:47:44.976Z,25.58
2023-05-05T12:50:11.879Z,23.74
2023-05-05T12:52:43.963Z,24.20
2023-05-05T12:55:11.539Z,24.35
2023-05-05T12:57:39.273Z,23.92
2023-05-05T13:00:17.727Z,23.55
2023-05-05T13:02:44.834Z,22.98
2023-05-05T13:05:12.037Z,22.47
2023-05-05T13:07:50.845Z,24.72
2023-05-05T13:10:17.849Z,27.06
2023-05-05T13:12:44.776Z,26.79
2023-05-05T13:15:12.244Z,27.50
2023-05-05T13:17:39.414Z,28.25
2023-05-05T13:20:08.686Z,27.20
2023-05-05T13:22:36.339Z,28.08
2023-05-05T13:25:03.243Z,28.72
2023-05-05T13:27:30.143Z,28.48
2023-05-05T13:29:57.035Z,29.24
2023-05-05T13:32:24.054Z,28.56
2023-05-05T13:34:51.140Z,29.26
2023-05-05T13:37:17.938Z,29.99
2023-05-05T13:39:44.909Z,30.23
2023-05-05T13:42:11.845Z,30.09
2023-05-05T13:44:39.407Z,29.73
2023-05-05T13:47:06.385Z,29.06
2023-05-05T13:49:33.849Z,28.92
2023-05-05T13:52:00.816Z,29.29
2023-05-05T13:54:28.207Z,28.19
2023-05-05T13:56:56.441Z,28.88
2023-05-05T13:59:23.375Z,27.78
2023-05-05T14:01:50.772Z,28.58
2023-05-05T14:04:17.655Z,27.92
2023-05-05T14:06:44.531Z,28.03
2023-05-05T14:09:11.420Z,27.80
2023-05-05T14:11:38.251Z,27.10
2023-05-05T14:14:05.074Z,27.02
2023-05-05T14:16:32.077Z,25.80
2023-05-05T14:18:58.923Z,25.43
2023-05-05T14:21:27.568Z,24.96
2023-05-05T14:23:54.442Z,25.01
2023-05-05T14:26:21.490Z,24.83
2023-05-05T14:28:49.865Z,24.49
2023-05-05T14:31:17.962Z,25.27
2023-05-05T14:33:44.847Z,24.83
2023-05-05T14:36:11.721Z,25.46
2023-05-05T14:38:38.728Z,27.41
2023-05-05T14:41:05.841Z,25.86
2023-05-05T14:43:32.732Z,25.73
2023-05-05T14:46:00.524Z,26.69
2023-05-05T14:48:28.110Z,27.03
2023-05-05T14:50:55.176Z,27.35
2023-05-05T14:53:22.049Z,28.10
2023-05-05T14:55:48.985Z,28.52
2023-05-05T14:58:17.229Z,29.71
2023-05-05T15:00:44.241Z,30.09
2023-05-05T15:03:12.596Z,30.76
2023-05-05T15:05:39.549Z,31.41
2023-05-05T15:08:06.673Z,31.48
2023-05-05T15:10:34.602Z,31.83
2023-05-05T15:13:01.711Z,32.70
2023-05-05T15:15:28.951Z,32.93
2023-05-05T15:17:55.936Z,32.51
2023-05-05T15:20:22.835Z,32.41
2023-05-05T15:22:49.790Z,32.28
2023-05-05T15:25:17.157Z,33.27
2023-05-05T15:27:44.137Z,33.39
2023-05-05T15:30:12.876Z,32.80
2023-05-05T15:32:40.557Z,33.05
2023-05-05T15:35:08.263Z,32.96
2023-05-05T15:37:35.417Z,32.54
2023-05-05T15:40:02.351Z,32.80
2023-05-05T15:42:31.049Z,33.78
2023-05-05T15:44:59.572Z,33.48
2023-05-05T15:47:26.501Z,33.97
2023-05-05T15:49:53.381Z,33.03
2023-05-05T15:52:20.531Z,33.28
2023-05-05T15:54:47.419Z,32.13
2023-05-05T15:57:14.252Z,32.63
2023-05-05T15:59:41.396Z,33.05
2023-05-05T16:02:08.356Z,33.16
2023-05-05T16:04:35.750Z,32.93
2023-05-05T16:07:03.369Z,33.30
2023-05-05T16:09:30.608Z,33.57
2023-05-05T16:11:57.524Z,33.31
2023-05-05T16:14:24.673Z,33.33
2023-05-05T16:16:51.616Z,33.34
2023-05-05T16:19:18.493Z,33.88
2023-05-05T16:21:45.699Z,34.76
2023-05-05T16:24:16.457Z,35.93
2023-05-05T16:26:43.951Z,36.50
2023-05-05T16:29:11.801Z,37.87
2023-05-05T16:31:39.359Z,38.54
2023-05-05T16:34:07.015Z,38.57
2023-05-05T16:36:33.910Z,38.19
2023-05-05T16:39:00.809Z,39.72
2023-05-05T16:41:27.855Z,39.96
2023-05-05T16:43:54.858Z,40.01
2023-05-05T16:46:21.836Z,40.55
2023-05-05T16:48:48.757Z,41.65
2023-05-05T16:51:15.579Z,42.84
2023-05-05T16:53:42.581Z,43.23
2023-05-05T16:56:13.097Z,43.22
2023-05-05T16:58:40.720Z,43.99
2023-05-05T17:01:07.679Z,43.87
2023-05-05T17:03:34.520Z,43.39
2023-05-05T17:06:01.548Z,44.14
2023-05-05T17:08:28.352Z,45.46
2023-05-05T17:10:55.211Z,44.93
2023-05-05T17:13:23.540Z,45.08
2023-05-05T17:15:50.542Z,45.58
2023-05-05T17:18:20.172Z,45.82
2023-05-05T17:20:47.499Z,46.17
2023-05-05T17:23:14.330Z,47.15
2023-05-05T17:25:41.109Z,47.45
2023-05-05T17:28:07.980Z,47.96
2023-05-05T17:30:34.946Z,48.76
2023-05-05T17:33:01.962Z,49.72
2023-05-05T17:35:28.900Z,50.45
2023-05-05T17:37:56.092Z,50.51
2023-05-05T17:40:22.996Z,50.68
2023-05-05T17:42:49.953Z,50.16
2023-05-05T17:45:16.915Z,51.34
2023-05-05T17:47:43.903Z,51.80
2023-05-05T17:50:11.287Z,52.12
2023-05-05T17:52:38.140Z,52.73
2023-05-05T17:55:05.333Z,52.95
2023-05-05T17:57:32.172Z,52.59
2023-05-05T17:59:59.046Z,53.52
2023-05-05T18:02:25.923Z,54.23
2023-05-05T18:04:52.846Z,54.75
2023-05-05T18:07:20.482Z,54.62
2023-05-05T18:09:47.332Z,54.60
2023-05-05T18:12:14.324Z,54.50
2023-05-05T18:14:41.265Z,54.52
2023-05-05T18:17:08.099Z,55.46
2023-05-05T18:19:35.036Z,56.73
2023-05-05T18:22:01.892Z,56.84
2023-05-05T18:24:29.463Z,56.85
2023-05-05T18:26:56.731Z,57.56
2023-05-05T18:29:23.610Z,57.32
2023-05-05T18:31:53.151Z,57.77
2023-05-05T18:34:20.921Z,58.05
2023-05-05T18:36:48.330Z,58.57
2023-05-05T18:39:15.451Z,59.18
2023-05-05T18:41:42.286Z,59.77
2023-05-05T18:44:09.762Z,61.02
2023-05-05T18:46:36.989Z,62.25
2023-05-05T18:49:04.031Z,62.83
2023-05-05T18:51:30.860Z,62.25
2023-05-05T18:53:57.877Z,63.21
2023-05-05T18:56:24.802Z,63.43
2023-05-05T18:58:51.757Z,64.36
2023-05-05T19:01:18.831Z,63.69
2023-05-05T19:03:48.589Z,63.52
2023-05-05T19:06:16.332Z,64.04
2023-05-05T19:08:45.231Z,63.31
2023-05-05T19:11:12.663Z,63.73
2023-05-05T19:13:39.910Z,63.56
2023-05-05T19:16:07.454Z,63.02
2023-05-05T19:18:34.419Z,63.39
2023-05-05T19:21:07.809Z,64.00
2023-05-05T19:23:36.185Z,63.66
2023-05-05T19:26:06.047Z,64.59
2023-05-05T19:28:34.281Z,64.37
2023-05-05T19:31:01.178Z,64.71
2023-05-05T19:33:39.482Z,65.28
2023-05-05T19:36:09.171Z,65.17
2023-05-05T19:38:36.665Z,65.33
2023-05-05T19:41:04.697Z,65.87
2023-05-05T19:43:32.395Z,64.69
2023-05-05T19:45:59.479Z,64.74
2023-05-05T19:48:26.514Z,64.82
2023-05-05T19:50:53.639Z,65.13
2023-05-05T19:53:20.557Z,65.24
2023-05-05T19:55:47.988Z,65.22
2023-05-05T19:58:16.006Z,65.07
2023-05-05T20:00:42.852Z,65.01
2023-05-05T20:03:09.952Z,64.95
2023-05-05T20:05:37.283Z,64.70
2023-05-05T20:08:05.804Z,64.41
2023-05-05T20:10:32.883Z,64.57
2023-05-05T20:13:00.011Z,64.87
2023-05-05T20:15:27.400Z,64.84
2023-05-05T20:17:55.274Z,64.90
2023-05-05T20:20:22.927Z,64.76
2023-05-05T20:22:49.808Z,65.26
2023-05-05T20:25:16.877Z,65.41
2023-05-05T20:27:45.335Z,66.09
2023-05-05T20:30:13.144Z,66.20
2023-05-05T20:32:41.560Z,66.56
2023-05-05T20:35:09.990Z,67.14
2023-05-05T20:37:37.080Z,67.06
2023-05-05T20:40:05.528Z,66.54
2023-05-05T20:42:32.496Z,66.71
2023-05-05T20:45:00.840Z,67.61
2023-05-05T20:47:27.914Z,67.99
2023-05-05T20:49:54.864Z,68.91
2023-05-05T20:52:22.886Z,68.81
2023-05-05T20:54:49.732Z,69.15
2023-05-05T20:57:16.604Z,70.06
2023-05-05T20:59:43.462Z,70.29
2023-05-05T21:02:10.457Z,70.39
2023-05-05T21:04:37.894Z,70.69
2023-05-05T21:07:04.824Z,70.64
2023-05-05T21:09:31.806Z,70.52
2023-05-05T21:11:58.900Z,70.26
2023-05-05T21:14:25.816Z,71.15
2023-05-05T21:16:52.972Z,70.95
2023-05-05T21:19:19.885Z,71.05
2023-05-05T21:21:48.246Z,72.22
2023-05-05T21:24:15.174Z,71.96
2023-05-05T21:26:45.876Z,71.90
2023-05-05T21:29:12.777Z,72.01
2023-05-05T21:31:39.761Z,72.64
2023-05-05T21:34:06.666Z,72.80
2023-05-05T21:36:34.836Z,73.60
2023-05-05T21:39:01.886Z,73.91
2023-05-05T21:41:28.790Z,73.70
2023-05-05T21:43:55.806Z,73.65
2023-05-05T21:46:22.891Z,73.47
2023-05-05T21:48:49.942Z,73.62
2023-05-05T21:51:17.459Z,73.64
2023-05-05T21:53:44.397Z,73.48
2023-05-05T21:56:11.453Z,74.30
2023-05-05T21:58:38.437Z,74.06
2023-05-05T22:01:05.548Z,74.39
2023-05-05T22:03:34.242Z,74.73
2023-05-05T22:06:01.239Z,74.64
2023-05-05T22:08:28.226Z,74.64
2023-05-05T22:10:55.062Z,74.84
2023-05-05T22:13:21.996Z,75.14
2023-05-05T22:15:49.084Z,75.44
2023-05-05T22:18:16.159Z,75.68
2023-05-05T22:20:43.345Z,75.39
2023-05-05T22:23:10.253Z,76.86
2023-05-05T22:25:37.202Z,78.03
2023-05-05T22:28:04.349Z,77.40
2023-05-05T22:30:31.423Z,76.87
2023-05-05T22:32:58.449Z,76.60
2023-05-05T22:35:25.301Z,76.51
2023-05-05T22:37:52.197Z,76.53
2023-05-05T22:40:19.150Z,76.86
2023-05-05T22:42:46.139Z,76.89
2023-05-05T22:45:13.833Z,76.87
2023-05-05T22:47:41.051Z,77.01
2023-05-05T22:50:09.113Z,77.64
2023-05-05T22:52:36.391Z,77.52
2023-05-05T22:55:03.586Z,77.58
2023-05-05T22:57:30.492Z,77.32
2023-05-05T22:59:57.494Z,77.66
2023-05-05T23:02:26.561Z,77.94
2023-05-05T23:04:53.754Z,77.79
2023-05-05T23:07:20.906Z,77.56
2023-05-05T23:09:48.135Z,77.30
2023-05-05T23:12:15.037Z,77.45
2023-05-05T23:14:41.980Z,77.47
2023-05-05T23:17:09.277Z,77.85
2023-05-05T23:19:36.823Z,78.27
2023-05-05T23:22:04.486Z,78.48
2023-05-05T23:24:31.603Z,78.66
2023-05-05T23:27:01.709Z,78.37
2023-05-05T23:29:29.433Z,78.66
2023-05-05T23:31:57.230Z,79.29
2023-05-05T23:34:24.500Z,79.33
2023-05-05T23:36:51.383Z,78.88
2023-05-05T23:39:18.626Z,79.11
2023-05-05T23:41:45.551Z,79.23
2023-05-05T23:44:12.896Z,79.30
2023-05-05T23:46:39.762Z,79.24
2023-05-05T23:49:06.663Z,79.95
2023-05-05T23:51:33.812Z,79.53
2023-05-05T23:54:01.145Z,79.71
2023-05-05T23:56:28.105Z,79.71
2023-05-05T23:58:55.157Z,79.61
